createdAt,value
2023-02-28T00:00:43.976Z,-2.40
2023-02-28T00:03:13.179Z,-2.20
2023-02-28T00:05:43.239Z,-2.20
2023-02-28T00:08:11.144Z,-2.40
2023-02-28T00:10:39.007Z,-2.30
2023-02-28T00:13:08.636Z,-2.60
2023-02-28T00:15:36.843Z,-2.70
2023-02-28T00:18:05.160Z,-2.70
2023-02-28T00:20:34.290Z,-2.70
2023-02-28T00:23:02.125Z,-2.50
2023-02-28T00:25:29.921Z,-2.50
2023-02-28T00:27:57.803Z,-2.10
2023-02-28T00:30:25.629Z,-2.50
2023-02-28T00:32:53.504Z,-2.40
2023-02-28T00:35:21.275Z,-2.10
2023-02-28T00:37:50.757Z,-2.30
2023-02-28T00:40:18.765Z,-2.60
2023-02-28T00:42:46.602Z,-2.90
2023-02-28T00:45:14.508Z,-2.60
2023-02-28T00:47:42.306Z,-2.60
2023-02-28T00:50:11.575Z,-2.40
2023-02-28T00:52:39.518Z,-2.80
2023-02-28T00:55:09.636Z,-2.60
2023-02-28T00:57:37.578Z,-2.80
2023-02-28T01:00:07.074Z,-2.70
2023-02-28T01:02:35.001Z,-2.30
2023-02-28T01:05:02.971Z,-2.50
2023-02-28T01:07:30.754Z,-2.90
2023-02-28T01:09:58.671Z,-2.90
2023-02-28T01:12:30.494Z,-2.60
2023-02-28T01:14:58.889Z,-3.00
2023-02-28T01:17:27.248Z,-2.70
2023-02-28T01:19:56.260Z,-2.90
2023-02-28T01:22:24.213Z,-2.70
2023-02-28T01:24:52.004Z,-2.80
2023-02-28T01:27:19.867Z,-3.00
2023-02-28T01:29:49.044Z,-2.80
2023-02-28T01:32:16.888Z,-2.90
2023-02-28T01:34:44.700Z,-3.20
2023-02-28T01:37:12.513Z,-3.10
2023-02-28T01:39:40.504Z,-2.80
2023-02-28T01:42:10.422Z,-2.30
2023-02-28T01:44:59.902Z,-2.80
2023-02-28T01:47:31.300Z,-2.70
2023-02-28T01:50:00.661Z,-2.40
2023-02-28T01:52:29.741Z,-3.00
2023-02-28T01:55:01.344Z,-2.60
2023-02-28T01:57:38.415Z,-2.70
2023-02-28T02:00:11.302Z,-2.50
2023-02-28T02:02:39.726Z,-2.00
2023-02-28T02:05:11.088Z,-1.80
2023-02-28T02:07:42.136Z,-2.10
2023-02-28T02:10:15.889Z,-2.00
2023-02-28T02:13:04.309Z,-1.80
2023-02-28T02:15:36.699Z,-1.60
2023-02-28T02:18:09.068Z,-1.60
2023-02-28T02:21:06.108Z,-1.80
2023-02-28T02:23:53.402Z,-1.90
2023-02-28T02:26:49.424Z,-2.00
2023-02-28T02:29:48.543Z,-2.10
2023-02-28T02:32:42.048Z,-2.60
2023-02-28T02:35:16.504Z,-1.90
2023-02-28T02:37:51.772Z,-2.30
2023-02-28T02:40:22.876Z,-2.90
2023-02-28T02:42:57.896Z,-2.60
2023-02-28T02:45:30.394Z,-2.60
2023-02-28T02:48:01.028Z,-2.70
2023-02-28T02:50:35.678Z,-2.50
2023-02-28T02:53:06.130Z,-2.50
2023-02-28T02:55:38.761Z,-2.60
2023-02-28T02:58:10.439Z,-2.70
2023-02-28T03:00:43.086Z,-2.60
2023-02-28T03:03:13.080Z,-2.50
2023-02-28T03:05:48.434Z,-2.10
2023-02-28T03:08:16.446Z,-2.30
2023-02-28T03:10:47.088Z,-2.40
2023-02-28T03:13:50.530Z,-2.50
2023-02-28T03:16:50.733Z,-2.10
2023-02-28T03:19:43.806Z,-2.60
2023-02-28T03:22:36.125Z,-2.20
2023-02-28T03:25:08.872Z,-2.10
2023-02-28T03:27:43.191Z,-2.10
2023-02-28T03:30:17.367Z,-1.90
2023-02-28T03:32:53.112Z,-2.10
2023-02-28T03:35:24.037Z,-1.90
2023-02-28T03:38:00.512Z,-1.90
2023-02-28T03:40:33.833Z,-2.20
2023-02-28T03:43:05.503Z,-2.00
2023-02-28T03:45:38.641Z,-2.30
2023-02-28T03:48:13.575Z,-2.20
2023-02-28T03:50:43.474Z,-2.50
2023-02-28T03:53:15.383Z,-2.20
2023-02-28T03:55:46.396Z,-2.50
2023-02-28T03:58:22.271Z,-2.00
2023-02-28T04:00:57.284Z,-2.40
2023-02-28T04:03:25.296Z,-2.30
2023-02-28T04:05:55.146Z,-2.40
2023-02-28T04:08:24.934Z,-2.10
2023-02-28T04:10:58.170Z,-2.20
2023-02-28T04:13:26.057Z,-2.60
2023-02-28T04:15:53.991Z,-2.10
2023-02-28T04:18:21.802Z,-1.90
2023-02-28T04:20:49.699Z,-2.20
2023-02-28T04:23:17.481Z,-2.60
2023-02-28T04:25:46.634Z,-2.70
2023-02-28T04:28:14.464Z,-2.90
2023-02-28T04:30:42.309Z,-2.80
2023-02-28T04:33:10.175Z,-2.50
2023-02-28T04:35:38.038Z,-2.80
2023-02-28T04:38:05.855Z,-2.80
2023-02-28T04:40:33.622Z,-2.80
2023-02-28T04:43:04.265Z,-2.90
2023-02-28T04:45:33.924Z,-3.00
2023-02-28T04:48:01.756Z,-3.00
2023-02-28T04:50:29.538Z,-2.50
2023-02-28T04:52:58.334Z,-2.80
2023-02-28T04:55:26.212Z,-2.90
2023-02-28T04:57:54.075Z,-2.90
2023-02-28T05:00:23.567Z,-2.20
2023-02-28T05:02:51.381Z,-2.60
2023-02-28T05:05:20.418Z,-2.60
2023-02-28T05:07:48.225Z,-3.00
2023-02-28T05:10:16.074Z,-3.10
2023-02-28T05:12:43.816Z,-3.00
2023-02-28T05:15:15.256Z,-2.80
2023-02-28T05:17:44.830Z,-2.80
2023-02-28T05:20:15.669Z,-2.70
2023-02-28T05:22:44.825Z,-2.80
2023-02-28T05:25:16.752Z,-2.60
2023-02-28T05:27:45.119Z,-2.80
2023-02-28T05:30:13.706Z,-2.90
2023-02-28T05:32:44.476Z,-2.90
2023-02-28T05:35:13.593Z,-2.70
2023-02-28T05:37:41.467Z,-2.50
2023-02-28T05:40:11.173Z,-2.80
2023-02-28T05:42:39.495Z,-2.90
2023-02-28T05:45:08.913Z,-2.80
2023-02-28T05:47:37.149Z,-2.70
2023-02-28T05:50:07.719Z,-2.80
2023-02-28T05:52:35.585Z,-2.60
2023-02-28T05:55:03.744Z,-2.80
2023-02-28T05:57:31.621Z,-2.90
2023-02-28T05:59:59.346Z,-2.80
2023-02-28T06:02:27.151Z,-2.60
2023-02-28T06:04:55.016Z,-2.50
2023-02-28T06:07:24.399Z,-2.70
2023-02-28T06:09:52.293Z,-2.80
2023-02-28T06:12:20.164Z,-2.70
2023-02-28T06:14:47.911Z,-2.80
2023-02-28T06:17:15.705Z,-2.60
2023-02-28T06:19:43.733Z,-2.50
2023-02-28T06:22:11.464Z,-2.60
2023-02-28T06:24:40.544Z,-2.60
2023-02-28T06:27:08.312Z,-2.70
2023-02-28T06:29:40.712Z,-2.70
2023-02-28T06:32:08.569Z,-2.70
2023-02-28T06:34:36.316Z,-2.80
2023-02-28T06:37:04.098Z,-2.60
2023-02-28T06:39:31.879Z,-2.70
2023-02-28T06:42:01.107Z,-2.60
2023-02-28T06:44:36.296Z,-2.60
2023-02-28T06:47:05.161Z,-2.20
2023-02-28T06:49:34.114Z,-2.10
2023-02-28T06:52:01.890Z,-2.50
2023-02-28T06:54:29.777Z,-2.80
2023-02-28T06:56:59.332Z,-2.70
2023-02-28T06:59:28.522Z,-2.70
2023-02-28T07:01:56.811Z,-2.60
2023-02-28T07:04:25.295Z,-2.50
2023-02-28T07:06:53.166Z,-2.40
2023-02-28T07:09:20.954Z,-2.70
2023-02-28T07:11:48.702Z,-2.80
2023-02-28T07:14:16.957Z,-2.70
2023-02-28T07:16:46.802Z,-2.60
2023-02-28T07:19:14.672Z,-2.70
2023-02-28T07:21:42.491Z,-2.60
2023-02-28T07:24:10.292Z,-2.50
2023-02-28T07:26:38.066Z,-2.40
2023-02-28T07:29:05.859Z,-2.30
2023-02-28T07:31:33.734Z,-2.40
2023-02-28T07:34:03.947Z,-2.60
2023-02-28T07:36:31.953Z,-2.40
2023-02-28T07:39:00.897Z,-2.40
2023-02-28T07:41:30.971Z,-2.60
2023-02-28T07:44:00.421Z,-2.60
2023-02-28T07:46:30.857Z,-2.40
2023-02-28T07:49:00.376Z,-2.40
2023-02-28T07:51:29.787Z,-2.50
2023-02-28T07:53:57.920Z,-2.40
2023-02-28T07:56:25.665Z,-2.00
2023-02-28T07:58:53.463Z,-2.30
2023-02-28T08:01:22.641Z,-2.20
2023-02-28T08:03:50.435Z,-2.20
2023-02-28T08:06:20.159Z,-2.40
2023-02-28T08:08:49.777Z,-2.20
2023-02-28T08:11:18.505Z,-2.40
2023-02-28T08:13:46.703Z,-2.00
2023-02-28T08:16:18.248Z,-2.30
2023-02-28T08:18:46.218Z,-2.00
2023-02-28T08:21:13.971Z,-2.20
2023-02-28T08:23:41.792Z,-2.20
2023-02-28T08:26:11.023Z,-2.30
2023-02-28T08:28:38.735Z,-2.30
2023-02-28T08:31:10.417Z,-2.20
2023-02-28T08:33:39.922Z,-1.90
2023-02-28T08:36:09.437Z,-2.20
2023-02-28T08:38:37.514Z,-2.10
2023-02-28T08:41:08.119Z,-2.10
2023-02-28T08:43:37.675Z,-2.00
2023-02-28T08:46:06.556Z,-1.80
2023-02-28T08:48:38.643Z,-2.10
2023-02-28T08:51:10.016Z,-2.10
2023-02-28T08:53:38.386Z,-1.90
2023-02-28T08:56:08.599Z,-1.80
2023-02-28T08:58:38.208Z,-2.00
2023-02-28T09:01:11.140Z,-1.60
2023-02-28T09:03:39.007Z,-1.60
2023-02-28T09:06:07.335Z,-1.60
2023-02-28T09:08:35.256Z,-1.40
2023-02-28T09:11:03.809Z,-1.70
2023-02-28T09:13:33.097Z,-1.70
2023-02-28T09:16:04.428Z,-1.80
2023-02-28T09:18:32.455Z,-1.70
2023-02-28T09:21:00.198Z,-1.40
2023-02-28T09:23:28.028Z,-1.90
2023-02-28T09:25:57.104Z,-1.80
2023-02-28T09:28:25.110Z,-1.60
2023-02-28T09:30:55.197Z,-1.80
2023-02-28T09:33:24.524Z,-1.70
2023-02-28T09:35:59.147Z,-1.30
2023-02-28T09:38:27.135Z,-1.50
2023-02-28T09:40:57.524Z,-1.30
2023-02-28T09:43:28.758Z,-1.30
2023-02-28T09:46:02.361Z,-1.30
2023-02-28T09:48:38.031Z,-1.10
2023-02-28T09:51:17.623Z,-1.20
2023-02-28T09:53:47.888Z,-1.10
2023-02-28T09:56:28.659Z,-1.00
2023-02-28T09:59:01.154Z,-0.90
2023-02-28T10:01:36.671Z,-0.50
2023-02-28T10:04:14.703Z,-0.40
2023-02-28T10:06:48.566Z,-0.50
2023-02-28T10:09:21.588Z,-0.40
2023-02-28T10:11:50.661Z,0.10
2023-02-28T10:14:21.297Z,-0.10
2023-02-28T10:16:53.096Z,0.10
2023-02-28T10:19:25.873Z,-0.30
2023-02-28T10:21:58.864Z,-0.30
2023-02-28T10:24:32.012Z,-0.30
2023-02-28T10:27:04.009Z,-0.30
2023-02-28T10:29:34.725Z,0.00
2023-02-28T10:32:05.660Z,0.40
2023-02-28T10:34:34.776Z,0.10
2023-02-28T10:37:08.257Z,-0.10
2023-02-28T10:39:41.293Z,-0.20
2023-02-28T10:42:26.377Z,-0.20
2023-02-28T10:45:14.974Z,0.00
2023-02-28T10:47:54.948Z,0.30
2023-02-28T10:50:34.916Z,0.60
2023-02-28T10:53:30.266Z,0.80
2023-02-28T10:56:00.012Z,0.40
2023-02-28T10:58:29.920Z,0.80
2023-02-28T11:00:59.343Z,1.20
2023-02-28T11:03:32.560Z,1.10
2023-02-28T11:06:07.864Z,0.80
2023-02-28T11:08:36.371Z,1.20
2023-02-28T11:11:07.829Z,1.30
2023-02-28T11:13:38.769Z,1.90
2023-02-28T11:16:09.512Z,1.60
2023-02-28T11:18:43.682Z,0.40
2023-02-28T11:21:20.507Z,0.80
2023-02-28T11:23:51.169Z,0.70
2023-02-28T11:26:38.765Z,0.70
2023-02-28T11:29:17.822Z,0.90
2023-02-28T11:31:45.704Z,1.20
2023-02-28T11:34:26.768Z,1.30
2023-02-28T11:36:57.889Z,1.10
2023-02-28T11:39:27.011Z,1.20
2023-02-28T11:42:06.152Z,1.30
2023-02-28T11:44:45.446Z,1.20
2023-02-28T11:47:19.629Z,1.00
2023-02-28T11:49:56.486Z,1.60
2023-02-28T11:52:38.089Z,1.40
2023-02-28T11:55:19.345Z,1.60
2023-02-28T11:58:01.656Z,0.90
2023-02-28T12:00:46.322Z,1.30
2023-02-28T12:03:28.549Z,1.20
2023-02-28T12:06:08.098Z,1.20
2023-02-28T12:08:56.185Z,1.40
2023-02-28T12:11:36.109Z,1.80
2023-02-28T12:14:26.201Z,1.60
2023-02-28T12:17:07.777Z,1.50
2023-02-28T12:19:44.771Z,1.70
2023-02-28T12:22:31.730Z,1.70
2023-02-28T12:25:39.136Z,1.80
2023-02-28T12:28:11.255Z,1.50
2023-02-28T12:30:43.493Z,2.00
2023-02-28T12:33:17.336Z,2.30
2023-02-28T12:35:52.132Z,2.00
2023-02-28T12:38:24.038Z,1.70
2023-02-28T12:40:58.424Z,1.70
2023-02-28T12:43:32.412Z,2.20
2023-02-28T12:46:05.266Z,2.60
2023-02-28T12:48:40.382Z,2.40
2023-02-28T12:51:10.039Z,2.20
2023-02-28T12:53:49.242Z,2.20
2023-02-28T12:56:24.140Z,2.00
2023-02-28T12:58:56.465Z,2.30
2023-02-28T13:01:58.859Z,2.60
2023-02-28T13:05:12.208Z,2.90
2023-02-28T13:08:00.485Z,2.40
2023-02-28T13:10:41.181Z,3.00
2023-02-28T13:13:17.846Z,3.00
2023-02-28T13:16:11.158Z,2.80
2023-02-28T13:18:41.549Z,2.50
2023-02-28T13:21:11.243Z,2.90
2023-02-28T13:24:01.771Z,2.70
2023-02-28T13:27:12.022Z,2.90
2023-02-28T13:29:45.415Z,2.80
2023-02-28T13:32:43.289Z,3.00
2023-02-28T13:35:39.322Z,3.80
2023-02-28T13:38:35.732Z,3.10
2023-02-28T13:41:41.136Z,2.80
2023-02-28T13:44:11.163Z,3.00
2023-02-28T13:47:22.234Z,3.20
2023-02-28T13:49:51.320Z,3.30
2023-02-28T13:52:22.832Z,3.10
2023-02-28T13:55:20.281Z,3.20
2023-02-28T13:58:13.658Z,3.20
2023-02-28T14:01:05.354Z,2.70
2023-02-28T14:03:44.936Z,3.20
2023-02-28T14:06:25.463Z,3.40
2023-02-28T14:08:58.775Z,3.50
2023-02-28T14:11:33.166Z,3.10
2023-02-28T14:14:01.811Z,3.00
2023-02-28T14:16:38.011Z,3.00
2023-02-28T14:19:14.036Z,3.10
2023-02-28T14:21:52.723Z,3.20
2023-02-28T14:24:53.510Z,3.10
2023-02-28T14:27:31.584Z,3.10
2023-02-28T14:30:51.136Z,3.30
2023-02-28T14:33:28.664Z,3.20
2023-02-28T14:36:08.971Z,3.50
2023-02-28T14:38:41.886Z,3.20
2023-02-28T14:41:19.234Z,3.10
2023-02-28T14:43:53.241Z,3.10
2023-02-28T14:46:22.004Z,3.40
2023-02-28T14:48:51.460Z,3.00
2023-02-28T14:51:25.776Z,2.90
2023-02-28T14:53:59.296Z,3.00
2023-02-28T14:56:34.727Z,3.20
2023-02-28T14:59:02.462Z,3.20
2023-02-28T15:01:30.334Z,3.10
2023-02-28T15:04:03.747Z,3.10
2023-02-28T15:06:34.032Z,3.10
2023-02-28T15:09:18.276Z,3.10
2023-02-28T15:11:50.396Z,3.00
2023-02-28T15:14:21.890Z,3.20
2023-02-28T15:16:57.161Z,3.10
2023-02-28T15:19:27.015Z,2.90
2023-02-28T15:22:00.892Z,2.90
2023-02-28T15:24:37.229Z,2.80
2023-02-28T15:27:08.911Z,2.80
2023-02-28T15:29:46.782Z,2.70
2023-02-28T15:32:29.436Z,2.70
2023-02-28T15:34:58.031Z,2.70
2023-02-28T15:37:40.855Z,2.60
2023-02-28T15:40:17.088Z,2.70
2023-02-28T15:42:59.248Z,2.60
2023-02-28T15:45:38.414Z,2.70
2023-02-28T15:48:14.208Z,2.60
2023-02-28T15:50:42.865Z,2.50
2023-02-28T15:53:18.182Z,2.30
2023-02-28T15:55:46.375Z,2.30
2023-02-28T15:58:15.308Z,2.30
2023-02-28T16:00:50.256Z,2.40
2023-02-28T16:03:29.285Z,2.20
2023-02-28T16:06:32.605Z,2.10
2023-02-28T16:09:01.756Z,2.10
2023-02-28T16:11:30.192Z,2.10
2023-02-28T16:13:58.871Z,2.20
2023-02-28T16:16:28.694Z,2.10
2023-02-28T16:18:56.804Z,2.00
2023-02-28T16:21:25.166Z,2.00
2023-02-28T16:23:52.910Z,2.10
2023-02-28T16:26:25.898Z,2.00
2023-02-28T16:28:54.024Z,2.00
2023-02-28T16:31:22.286Z,1.90
2023-02-28T16:33:50.137Z,1.80
2023-02-28T16:36:19.928Z,1.80
2023-02-28T16:38:47.734Z,1.90
2023-02-28T16:41:20.742Z,1.80
2023-02-28T16:43:52.230Z,1.70
2023-02-28T16:46:20.485Z,1.70
2023-02-28T16:48:52.067Z,1.80
2023-02-28T16:51:20.281Z,1.80
2023-02-28T16:53:48.180Z,2.00
2023-02-28T16:56:20.238Z,1.90
2023-02-28T16:58:50.494Z,1.90
2023-02-28T17:01:22.626Z,1.80
2023-02-28T17:03:51.380Z,1.70
2023-02-28T17:06:22.904Z,1.70
2023-02-28T17:08:50.846Z,1.90
2023-02-28T17:11:19.132Z,1.90
2023-02-28T17:13:48.859Z,1.70
2023-02-28T17:16:24.525Z,1.80
2023-02-28T17:18:52.935Z,1.90
2023-02-28T17:21:20.714Z,2.00
2023-02-28T17:23:48.572Z,2.00
2023-02-28T17:26:18.393Z,1.90
2023-02-28T17:28:46.195Z,2.00
2023-02-28T17:31:15.518Z,2.00
2023-02-28T17:33:43.361Z,2.00
2023-02-28T17:36:15.725Z,2.10
2023-02-28T17:38:43.755Z,2.10
2023-02-28T17:41:12.829Z,2.20
2023-02-28T17:43:40.974Z,2.20
2023-02-28T17:46:16.736Z,2.20
2023-02-28T17:48:44.648Z,2.20
2023-02-28T17:51:14.423Z,2.20
2023-02-28T17:53:42.549Z,2.20
2023-02-28T17:56:14.846Z,2.10
2023-02-28T17:58:42.888Z,2.10
2023-02-28T18:01:11.798Z,2.00
2023-02-28T18:03:41.256Z,2.10
2023-02-28T18:06:16.800Z,2.00
2023-02-28T18:08:44.625Z,2.00
2023-02-28T18:11:18.115Z,1.90
2023-02-28T18:13:47.689Z,1.70
2023-02-28T18:16:16.288Z,1.70
2023-02-28T18:18:45.721Z,1.80
2023-02-28T18:21:15.895Z,1.90
2023-02-28T18:23:48.474Z,1.90
2023-02-28T18:26:16.875Z,1.90
2023-02-28T18:28:45.443Z,1.60
2023-02-28T18:31:16.005Z,1.50
2023-02-28T18:33:46.255Z,1.50
2023-02-28T18:36:14.111Z,1.30
2023-02-28T18:38:42.161Z,1.60
2023-02-28T18:41:10.391Z,1.80
2023-02-28T18:43:39.313Z,1.70
2023-02-28T18:46:07.732Z,1.60
2023-02-28T18:48:35.946Z,1.50
2023-02-28T18:51:09.841Z,1.50
2023-02-28T18:53:38.900Z,1.60
2023-02-28T18:56:08.483Z,1.30
2023-02-28T18:58:36.741Z,1.60
2023-02-28T19:01:13.406Z,1.50
2023-02-28T19:03:41.341Z,1.60
2023-02-28T19:06:12.768Z,1.70
2023-02-28T19:08:40.561Z,1.50
2023-02-28T19:11:09.796Z,1.30
2023-02-28T19:13:38.311Z,1.30
2023-02-28T19:16:08.193Z,1.30
2023-02-28T19:18:36.392Z,1.30
2023-02-28T19:21:04.630Z,1.30
2023-02-28T19:23:34.154Z,1.50
2023-02-28T19:26:01.943Z,1.50
2023-02-28T19:28:30.898Z,1.30
2023-02-28T19:30:58.815Z,1.20
2023-02-28T19:33:26.653Z,1.50
2023-02-28T19:35:54.519Z,1.20
2023-02-28T19:38:22.628Z,1.30
2023-02-28T19:40:51.730Z,1.30
2023-02-28T19:43:19.542Z,1.20
2023-02-28T19:45:47.510Z,1.10
2023-02-28T19:48:15.332Z,1.10
2023-02-28T19:50:43.106Z,1.20
2023-02-28T19:53:10.932Z,1.10
2023-02-28T19:55:39.351Z,1.10
2023-02-28T19:58:08.494Z,1.10
2023-02-28T20:00:36.344Z,1.00
2023-02-28T20:03:04.341Z,1.00
2023-02-28T20:05:32.135Z,1.00
2023-02-28T20:07:59.952Z,1.00
2023-02-28T20:10:27.874Z,1.00
2023-02-28T20:12:55.661Z,1.00
2023-02-28T20:15:24.829Z,1.00
2023-02-28T20:17:52.604Z,1.00
2023-02-28T20:20:20.502Z,1.00
2023-02-28T20:22:48.300Z,0.90
2023-02-28T20:25:16.883Z,1.00
2023-02-28T20:27:44.962Z,1.00
2023-02-28T20:30:13.772Z,1.00
2023-02-28T20:32:42.984Z,1.00
2023-02-28T20:35:11.808Z,1.00
2023-02-28T20:37:40.091Z,1.00
2023-02-28T20:40:10.080Z,0.90
2023-02-28T20:42:37.869Z,0.90
2023-02-28T20:45:06.205Z,0.90
2023-02-28T20:47:34.020Z,1.00
2023-02-28T20:50:03.158Z,1.00
2023-02-28T20:52:30.950Z,1.00
2023-02-28T20:54:58.726Z,1.10
2023-02-28T20:57:29.242Z,1.10
2023-02-28T20:59:57.028Z,1.00
2023-02-28T21:02:24.948Z,1.00
2023-02-28T21:04:52.945Z,1.00
2023-02-28T21:07:22.411Z,0.90
2023-02-28T21:09:50.253Z,1.00
2023-02-28T21:12:18.672Z,1.00
2023-02-28T21:14:46.470Z,1.00
2023-02-28T21:17:14.280Z,0.80
2023-02-28T21:19:42.118Z,0.90
2023-02-28T21:22:10.236Z,0.90
2023-02-28T21:24:39.559Z,0.90
2023-02-28T21:27:07.439Z,0.90
2023-02-28T21:29:35.144Z,0.80
2023-02-28T21:32:02.963Z,0.80
2023-02-28T21:34:30.837Z,0.90
2023-02-28T21:36:58.648Z,1.00
2023-02-28T21:39:29.887Z,0.90
2023-02-28T21:42:04.086Z,0.90
2023-02-28T21:44:34.244Z,0.90
2023-02-28T21:47:02.533Z,0.80
2023-02-28T21:49:30.685Z,0.90
2023-02-28T21:51:59.202Z,0.90
2023-02-28T21:54:27.694Z,1.00
2023-02-28T21:56:59.605Z,0.80
2023-02-28T21:59:27.497Z,0.80
2023-02-28T22:01:55.676Z,0.90
2023-02-28T22:04:23.538Z,1.00
2023-02-28T22:06:53.276Z,0.80
2023-02-28T22:09:21.494Z,0.90
2023-02-28T22:11:49.439Z,1.00
2023-02-28T22:14:19.176Z,0.80
2023-02-28T22:16:51.869Z,0.80
2023-02-28T22:19:23.988Z,0.80
2023-02-28T22:21:53.579Z,0.70
2023-02-28T22:24:24.131Z,0.70
2023-02-28T22:26:52.721Z,0.70
2023-02-28T22:29:22.039Z,0.60
2023-02-28T22:31:49.933Z,0.70
2023-02-28T22:34:17.869Z,0.70
2023-02-28T22:36:45.655Z,0.70
2023-02-28T22:39:13.686Z,0.80
2023-02-28T22:41:41.559Z,0.70
2023-02-28T22:44:09.635Z,0.80
2023-02-28T22:46:38.877Z,0.70
2023-02-28T22:49:07.131Z,0.70
2023-02-28T22:51:35.540Z,0.80
2023-02-28T22:54:04.310Z,0.80
2023-02-28T22:56:32.703Z,0.70
2023-02-28T23:01:44.688Z,0.70
2023-02-28T23:04:13.486Z,0.90
2023-02-28T23:06:43.702Z,0.70
2023-02-28T23:09:15.175Z,0.70
2023-02-28T23:11:45.032Z,0.80
2023-02-28T23:14:14.354Z,0.70
2023-02-28T23:16:46.076Z,0.60
2023-02-28T23:19:16.787Z,0.60
2023-02-28T23:21:45.211Z,0.60
2023-02-28T23:24:15.358Z,0.60
2023-02-28T23:26:45.801Z,0.80
2023-02-28T23:29:15.488Z,0.70
2023-02-28T23:31:45.488Z,0.80
2023-02-28T23:34:14.248Z,0.70
2023-02-28T23:36:45.821Z,0.70
2023-02-28T23:39:14.497Z,0.70
2023-02-28T23:41:42.544Z,0.70
2023-02-28T23:44:13.518Z,0.70
2023-02-28T23:46:41.588Z,0.70
2023-02-28T23:49:10.792Z,0.60
2023-02-28T23:51:38.611Z,0.70
2023-02-28T23:54:06.618Z,0.70
2023-02-28T23:56:34.797Z,0.80
2023-02-28T23:59:02.650Z,0.80
